Time;durP1;ratioP1;P1;durP2;ratioP2;P2;SDS_P1;SDS_P2;PMS_P1;PMS_P2;Temp;Humidity;BMP_temperature;BMP_pressure;BME280_temperature;BME280_humidity;BME280_pressure;Samples;Min_cycle;Max_cycle;Signal;HPM_P1;HPM_P2
2023/02/07 00:01:57;;;;;;;14.07;5.35;;;;;;;;;;5019380;28;20026;-71
2023/02/07 00:04:22;;;;;;;20.55;5.80;;;;;;;;;;5016563;28;20458;-72
2023/02/07 00:06:48;;;;;;;22.27;4.85;;;;;;;;;;5029523;28;20041;-72
2023/02/07 00:09:13;;;;;;;24.58;5.53;;;;;;;;;;5026696;28;20117;-71
2023/02/07 00:11:39;;;;;;;24.55;6.65;;;;;;;;;;5030643;28;20045;-72
2023/02/07 00:14:06;;;;;;;30.50;6.25;;;;;;;;;;5026125;28;20041;-73
2023/02/07 00:16:31;;;;;;;14.73;5.53;;;;;;;;;;5025604;28;20083;-71
2023/02/07 00:18:57;;;;;;;19.05;6.13;;;;;;;;;;5022993;28;20046;-71
2023/02/07 00:21:23;;;;;;;19.25;6.13;;;;;;;;;;5024396;28;20060;-71
2023/02/07 00:23:49;;;;;;;25.10;5.63;;;;;;;;;;5025639;28;20239;-72
2023/02/07 00:26:15;;;;;;;19.48;5.07;;;;;;;;;;5019090;28;20397;-72
2023/02/07 00:28:41;;;;;;;14.98;5.80;;;;;;;;;;5025979;28;20119;-72
2023/02/07 00:31:16;;;;;;;12.85;4.28;;;;;;;;;;5015726;28;20093;-71
2023/02/07 00:33:43;;;;;;;18.13;5.22;;;;;;;;;;5018915;28;20041;-72
2023/02/07 00:36:12;;;;;;;14.00;4.68;;;;;;;;;;5025657;28;20033;-72
2023/02/07 00:38:38;;;;;;;20.17;5.80;;;;;;;;;;5012942;28;20034;-73
2023/02/07 00:41:04;;;;;;;18.70;5.78;;;;;;;;;;5021621;28;20437;-71
2023/02/07 00:43:30;;;;;;;19.75;5.68;;;;;;;;;;5020145;28;20038;-74
2023/02/07 00:46:00;;;;;;;30.42;5.55;;;;;;;;;;5018597;28;20045;-72
2023/02/07 00:48:27;;;;;;;21.60;4.55;;;;;;;;;;5019814;28;20034;-71
2023/02/07 00:50:52;;;;;;;14.18;5.10;;;;;;;;;;5020462;28;20037;-71
2023/02/07 00:53:18;;;;;;;10.82;4.88;;;;;;;;;;5026493;28;20045;-71
2023/02/07 00:55:43;;;;;;;9.40;4.18;;;;;;;;;;5025601;28;20096;-72
2023/02/07 00:58:08;;;;;;;12.63;5.05;;;;;;;;;;5020701;28;20045;-71
2023/02/07 01:00:34;;;;;;;14.18;4.22;;;;;;;;;;5023570;28;20553;-71
2023/02/07 01:02:59;;;;;;;20.85;6.28;;;;;;;;;;5024472;28;20042;-71
2023/02/07 01:05:25;;;;;;;13.68;5.75;;;;;;;;;;5022811;28;20449;-71
2023/02/07 01:07:50;;;;;;;11.18;5.15;;;;;;;;;;5031659;28;20034;-71
2023/02/07 01:10:15;;;;;;;12.65;5.10;;;;;;;;;;5021072;28;20099;-72
2023/02/07 01:12:41;;;;;;;18.98;4.13;;;;;;;;;;5027184;28;20112;-72
2023/02/07 01:15:06;;;;;;;31.17;4.78;;;;;;;;;;5020276;28;20513;-71
2023/02/07 01:17:32;;;;;;;20.63;5.65;;;;;;;;;;5025896;28;20090;-72
2023/02/07 01:19:58;;;;;;;37.72;8.55;;;;;;;;;;5023513;28;20490;-71
2023/02/07 01:22:25;;;;;;;14.02;7.78;;;;;;;;;;5020672;28;20041;-71
2023/02/07 01:24:54;;;;;;;20.45;8.32;;;;;;;;;;5018197;28;20038;-71
2023/02/07 01:27:23;;;;;;;25.35;8.23;;;;;;;;;;5019150;28;20029;-71
2023/02/07 01:29:49;;;;;;;30.92;8.80;;;;;;;;;;5025910;28;20489;-73
2023/02/07 01:32:14;;;;;;;18.42;8.85;;;;;;;;;;5029957;28;20044;-71
2023/02/07 01:34:39;;;;;;;22.95;8.32;;;;;;;;;;5029510;28;20026;-73
2023/02/07 01:37:05;;;;;;;16.85;7.28;;;;;;;;;;5013935;28;20045;-73
2023/02/07 01:39:31;;;;;;;14.90;5.63;;;;;;;;;;5019622;28;20041;-72
2023/02/07 01:41:56;;;;;;;15.20;5.65;;;;;;;;;;5017406;28;20386;-71
2023/02/07 01:44:21;;;;;;;20.10;6.13;;;;;;;;;;5025603;28;20057;-71
2023/02/07 01:46:48;;;;;;;11.25;4.90;;;;;;;;;;5021225;28;20442;-71
2023/02/07 01:49:16;;;;;;;16.58;5.80;;;;;;;;;;5042215;28;20053;-73
2023/02/07 01:51:45;;;;;;;15.27;5.53;;;;;;;;;;5027859;28;20026;-72
2023/02/07 01:54:12;;;;;;;15.43;6.15;;;;;;;;;;5028414;28;20044;-71
2023/02/07 01:56:42;;;;;;;17.77;5.75;;;;;;;;;;5024063;28;20032;-71
2023/02/07 01:59:07;;;;;;;13.13;5.03;;;;;;;;;;5023374;28;20250;-71
2023/02/07 02:01:33;;;;;;;14.55;5.00;;;;;;;;;;5017458;28;20037;-71
2023/02/07 02:03:59;;;;;;;19.00;5.28;;;;;;;;;;5018592;28;20040;-71
2023/02/07 02:06:26;;;;;;;13.70;4.65;;;;;;;;;;5017347;28;20038;-71
2023/02/07 02:08:54;;;;;;;18.02;4.13;;;;;;;;;;5023537;28;20042;-71
2023/02/07 02:11:35;;;;;;;20.83;5.22;;;;;;;;;;5028975;28;20069;-71
2023/02/07 02:14:24;;;;;;;8.35;3.88;;;;;;;;;;5026424;28;20069;-71
2023/02/07 02:17:22;;;;;;;9.85;3.65;;;;;;;;;;5025509;28;20112;-71
2023/02/07 02:20:01;;;;;;;10.48;4.15;;;;;;;;;;5024466;28;20033;-71
2023/02/07 02:22:42;;;;;;;12.98;4.32;;;;;;;;;;5029048;28;20048;-71
2023/02/07 02:25:07;;;;;;;13.55;5.13;;;;;;;;;;5020232;28;20038;-71
2023/02/07 02:27:44;;;;;;;13.75;5.03;;;;;;;;;;5029398;28;20465;-71
2023/02/07 02:30:37;;;;;;;11.13;4.10;;;;;;;;;;5018197;28;20489;-71
2023/02/07 02:33:14;;;;;;;11.35;3.10;;;;;;;;;;5028094;28;20388;-71
2023/02/07 02:35:56;;;;;;;18.92;3.88;;;;;;;;;;5023509;28;20095;-71
2023/02/07 02:38:39;;;;;;;28.42;3.53;;;;;;;;;;5031109;28;20040;-71
2023/02/07 02:41:19;;;;;;;9.00;3.00;;;;;;;;;;5031095;28;20617;-73
2023/02/07 02:43:48;;;;;;;15.23;4.03;;;;;;;;;;5015253;28;20036;-71
2023/02/07 02:46:20;;;;;;;9.75;4.57;;;;;;;;;;5038476;28;20053;-71
2023/02/07 02:48:46;;;;;;;6.30;3.55;;;;;;;;;;5014467;28;20062;-71
2023/02/07 02:51:12;;;;;;;21.17;5.38;;;;;;;;;;5021632;28;20034;-71
2023/02/07 02:53:38;;;;;;;13.32;4.80;;;;;;;;;;5031226;28;20051;-71
2023/02/07 02:56:13;;;;;;;19.48;4.47;;;;;;;;;;5023038;28;20057;-71
2023/02/07 02:58:51;;;;;;;22.80;5.03;;;;;;;;;;5023695;28;20069;-71
2023/02/07 03:01:41;;;;;;;24.55;5.93;;;;;;;;;;5011542;28;20033;-71
2023/02/07 03:04:25;;;;;;;8.88;3.63;;;;;;;;;;5018948;28;20033;-72
2023/02/07 03:07:02;;;;;;;18.88;4.55;;;;;;;;;;5016468;28;20030;-71
2023/02/07 03:09:58;;;;;;;22.65;5.53;;;;;;;;;;5022174;28;20061;-71
2023/02/07 03:12:46;;;;;;;27.90;6.13;;;;;;;;;;5021518;28;20112;-71
2023/02/07 03:15:46;;;;;;;17.88;3.65;;;;;;;;;;5008394;28;20053;-71
2023/02/07 03:18:18;;;;;;;30.20;6.38;;;;;;;;;;5014631;28;20486;-71
2023/02/07 03:20:55;;;;;;;17.75;5.43;;;;;;;;;;5021774;28;20552;-72
2023/02/07 03:23:20;;;;;;;18.90;5.32;;;;;;;;;;5022910;28;20034;-71
2023/02/07 03:25:47;;;;;;;14.05;5.28;;;;;;;;;;5019493;28;20053;-72
2023/02/07 03:28:14;;;;;;;21.55;3.88;;;;;;;;;;5015519;28;20095;-71
2023/02/07 03:30:42;;;;;;;29.33;5.65;;;;;;;;;;5028969;28;20041;-71
2023/02/07 03:33:10;;;;;;;22.58;4.50;;;;;;;;;;5013407;28;20041;-71
2023/02/07 03:35:43;;;;;;;25.75;5.57;;;;;;;;;;5028747;28;20167;-71
2023/02/07 03:38:11;;;;;;;8.48;3.85;;;;;;;;;;5015641;28;20123;-71
2023/02/07 03:40:39;;;;;;;14.38;4.18;;;;;;;;;;5016792;28;20045;-71
2023/02/07 03:43:14;;;;;;;20.23;4.60;;;;;;;;;;5028677;28;20038;-72
2023/02/07 03:45:40;;;;;;;19.27;5.05;;;;;;;;;;5013474;28;20401;-71
2023/02/07 03:48:05;;;;;;;16.05;4.15;;;;;;;;;;5024518;28;20014;-71
2023/02/07 03:50:31;;;;;;;16.35;4.47;;;;;;;;;;5023442;28;20481;-71
2023/02/07 03:52:56;;;;;;;28.15;5.00;;;;;;;;;;5016874;28;20082;-71
2023/02/07 03:55:22;;;;;;;16.65;5.28;;;;;;;;;;5019301;28;20073;-71
2023/02/07 03:57:47;;;;;;;12.05;4.75;;;;;;;;;;5026481;28;20030;-72
2023/02/07 04:00:13;;;;;;;26.20;5.60;;;;;;;;;;5024180;28;20045;-71
2023/02/07 04:02:39;;;;;;;22.30;4.90;;;;;;;;;;5019146;28;20080;-71
2023/02/07 04:05:05;;;;;;;14.30;5.85;;;;;;;;;;5026540;28;20751;-71
2023/02/07 04:07:30;;;;;;;24.23;5.05;;;;;;;;;;5030303;28;20112;-71
2023/02/07 04:09:56;;;;;;;29.95;5.35;;;;;;;;;;5028019;28;20105;-70
2023/02/07 04:12:21;;;;;;;12.13;4.93;;;;;;;;;;5021414;28;20068;-71
2023/02/07 04:14:46;;;;;;;18.50;3.85;;;;;;;;;;5020408;28;20064;-71
2023/02/07 04:17:12;;;;;;;18.10;3.95;;;;;;;;;;5013553;28;20382;-70
2023/02/07 04:19:37;;;;;;;17.20;4.38;;;;;;;;;;5028109;28;20037;-71
2023/02/07 04:22:03;;;;;;;8.40;3.15;;;;;;;;;;5035490;28;20088;-71
2023/02/07 04:24:31;;;;;;;18.10;4.15;;;;;;;;;;5028375;28;20033;-70
2023/02/07 04:26:57;;;;;;;9.63;3.90;;;;;;;;;;5034420;28;20053;-71
2023/02/07 04:29:23;;;;;;;12.30;3.45;;;;;;;;;;5026407;28;20038;-71
2023/02/07 04:31:48;;;;;;;11.98;3.63;;;;;;;;;;5027750;28;20125;-70
2023/02/07 04:34:14;;;;;;;18.83;4.60;;;;;;;;;;5027063;28;20038;-70
2023/02/07 04:36:39;;;;;;;14.55;3.35;;;;;;;;;;5027836;28;20046;-71
2023/02/07 04:39:04;;;;;;;8.65;3.50;;;;;;;;;;5023814;28;20033;-71
2023/02/07 04:41:30;;;;;;;13.25;4.13;;;;;;;;;;5026293;28;20441;-71
2023/02/07 04:43:55;;;;;;;10.20;3.30;;;;;;;;;;5029746;28;20038;-72
2023/02/07 04:46:21;;;;;;;10.50;4.10;;;;;;;;;;5023877;28;20466;-71
2023/02/07 04:48:47;;;;;;;7.53;3.15;;;;;;;;;;5029103;28;20041;-71
2023/02/07 04:51:13;;;;;;;11.65;3.13;;;;;;;;;;5024617;28;20049;-71
2023/02/07 04:53:38;;;;;;;16.23;3.85;;;;;;;;;;5022231;28;20053;-71
2023/02/07 04:56:04;;;;;;;14.63;4.20;;;;;;;;;;5020248;28;20051;-71
2023/02/07 04:58:29;;;;;;;15.90;4.45;;;;;;;;;;5025725;28;20046;-71
2023/02/07 05:00:54;;;;;;;11.60;4.32;;;;;;;;;;5028218;28;20048;-71
2023/02/07 05:03:20;;;;;;;15.70;4.68;;;;;;;;;;5026682;28;20044;-70
2023/02/07 05:05:45;;;;;;;14.77;3.65;;;;;;;;;;5033349;28;20044;-71
2023/02/07 05:08:11;;;;;;;8.73;4.28;;;;;;;;;;5024760;28;20417;-71
2023/02/07 05:10:37;;;;;;;12.95;3.88;;;;;;;;;;5030613;28;20037;-72
2023/02/07 05:13:03;;;;;;;7.80;2.90;;;;;;;;;;5020714;28;20501;-71
2023/02/07 05:15:28;;;;;;;17.35;4.18;;;;;;;;;;5032970;28;20033;-71
2023/02/07 05:17:55;;;;;;;12.85;3.80;;;;;;;;;;5017321;28;20099;-70
2023/02/07 05:20:21;;;;;;;10.73;4.28;;;;;;;;;;5025212;28;20507;-71
2023/02/07 05:22:47;;;;;;;10.27;3.90;;;;;;;;;;5034150;28;20037;-72
2023/02/07 05:25:12;;;;;;;8.88;4.10;;;;;;;;;;5029039;28;20065;-71
2023/02/07 05:27:37;;;;;;;6.20;2.92;;;;;;;;;;5022500;28;20099;-71
2023/02/07 05:30:04;;;;;;;21.23;4.25;;;;;;;;;;5028355;28;20029;-71
2023/02/07 05:35:13;;;;;;;9.40;3.63;;;;;;;;;;5028273;28;20056;-70
2023/02/07 05:37:38;;;;;;;10.23;3.65;;;;;;;;;;5022202;28;20034;-71
2023/02/07 05:40:04;;;;;;;9.90;3.80;;;;;;;;;;5032116;28;20625;-71
2023/02/07 05:42:30;;;;;;;22.70;5.78;;;;;;;;;;5021811;28;20029;-71
2023/02/07 05:44:55;;;;;;;8.73;4.00;;;;;;;;;;5021629;28;20057;-71
2023/02/07 05:47:20;;;;;;;8.05;3.83;;;;;;;;;;5028697;28;20041;-70
2023/02/07 05:49:46;;;;;;;10.63;4.00;;;;;;;;;;5023712;28;20033;-71
2023/02/07 05:52:11;;;;;;;7.70;3.70;;;;;;;;;;5025536;28;20049;-71
2023/02/07 05:54:37;;;;;;;8.02;4.43;;;;;;;;;;5016914;28;20097;-71
2023/02/07 05:57:02;;;;;;;7.05;3.33;;;;;;;;;;5020271;28;20492;-75
2023/02/07 05:59:28;;;;;;;6.97;3.78;;;;;;;;;;5005490;28;20474;-71
2023/02/07 06:01:53;;;;;;;5.13;3.40;;;;;;;;;;5029070;28;20045;-71
2023/02/07 06:04:18;;;;;;;12.93;4.68;;;;;;;;;;5021761;28;20041;-70
2023/02/07 06:06:44;;;;;;;12.75;3.67;;;;;;;;;;5023605;28;20036;-71
2023/02/07 06:09:09;;;;;;;9.10;3.63;;;;;;;;;;5023586;28;20124;-71
2023/02/07 06:11:34;;;;;;;21.60;4.32;;;;;;;;;;5022478;28;20105;-70
2023/02/07 06:14:00;;;;;;;16.70;3.88;;;;;;;;;;5020091;28;20033;-71
2023/02/07 06:16:25;;;;;;;9.23;4.63;;;;;;;;;;5026775;28;20038;-71
2023/02/07 06:18:51;;;;;;;6.30;3.53;;;;;;;;;;5017620;28;20125;-71
2023/02/07 06:21:16;;;;;;;21.58;4.53;;;;;;;;;;5022475;28;20034;-70
2023/02/07 06:23:41;;;;;;;12.40;3.72;;;;;;;;;;5017147;28;20533;-71
2023/02/07 06:26:07;;;;;;;13.13;3.40;;;;;;;;;;5020362;28;20033;-71
2023/02/07 06:28:32;;;;;;;15.52;3.72;;;;;;;;;;5023880;28;20039;-72
2023/02/07 06:30:58;;;;;;;9.13;4.43;;;;;;;;;;5028578;28;20033;-71
2023/02/07 06:33:23;;;;;;;10.23;4.45;;;;;;;;;;5023816;28;20040;-71
2023/02/07 06:35:48;;;;;;;11.18;4.68;;;;;;;;;;5022311;28;20037;-71
2023/02/07 06:38:15;;;;;;;9.63;3.60;;;;;;;;;;5021031;28;20363;-71
2023/02/07 06:40:41;;;;;;;20.52;5.10;;;;;;;;;;5003754;28;20037;-70
2023/02/07 06:43:07;;;;;;;13.60;3.90;;;;;;;;;;5026752;28;20535;-71
2023/02/07 06:45:32;;;;;;;6.82;3.38;;;;;;;;;;5019436;28;20113;-71
2023/02/07 06:47:58;;;;;;;18.50;4.32;;;;;;;;;;5021149;28;20037;-70
2023/02/07 06:50:23;;;;;;;17.85;5.45;;;;;;;;;;5024141;28;20033;-71
2023/02/07 06:52:48;;;;;;;10.65;4.25;;;;;;;;;;5015522;28;20115;-71
2023/02/07 06:55:14;;;;;;;11.35;3.47;;;;;;;;;;5021028;28;20030;-71
2023/02/07 06:57:39;;;;;;;9.98;4.55;;;;;;;;;;5016288;28;20497;-71
2023/02/07 07:00:05;;;;;;;6.80;3.67;;;;;;;;;;5024102;28;20397;-71
2023/02/07 07:02:30;;;;;;;9.38;4.55;;;;;;;;;;5022671;28;20038;-70
2023/02/07 07:04:56;;;;;;;8.50;3.65;;;;;;;;;;5024148;28;20041;-71
2023/02/07 07:07:21;;;;;;;15.32;6.00;;;;;;;;;;5028349;28;20087;-71
2023/02/07 07:09:47;;;;;;;11.93;4.07;;;;;;;;;;5031596;28;20029;-70
2023/02/07 07:12:12;;;;;;;18.85;4.15;;;;;;;;;;5029081;28;20026;-71
2023/02/07 07:14:37;;;;;;;14.38;4.90;;;;;;;;;;5020448;28;20482;-71
2023/02/07 07:17:03;;;;;;;8.32;3.47;;;;;;;;;;5021015;28;20063;-72
2023/02/07 07:19:28;;;;;;;15.32;4.57;;;;;;;;;;5018422;28;20433;-72
2023/02/07 07:21:54;;;;;;;10.82;4.38;;;;;;;;;;5024598;28;20087;-70
2023/02/07 07:24:20;;;;;;;8.65;3.67;;;;;;;;;;5018509;28;20084;-70
2023/02/07 07:26:45;;;;;;;13.05;4.55;;;;;;;;;;5009374;28;20393;-72
2023/02/07 07:29:11;;;;;;;6.93;3.47;;;;;;;;;;5023800;28;20037;-70
2023/02/07 07:31:36;;;;;;;14.98;5.15;;;;;;;;;;5026607;28;20033;-71
2023/02/07 07:34:02;;;;;;;10.55;3.75;;;;;;;;;;5019377;28;20384;-71
2023/02/07 07:36:27;;;;;;;7.32;4.40;;;;;;;;;;5028762;28;21220;-71
2023/02/07 07:38:53;;;;;;;14.48;4.10;;;;;;;;;;5029202;28;20454;-70
2023/02/07 07:41:18;;;;;;;8.88;4.00;;;;;;;;;;5021276;28;20033;-70
2023/02/07 07:43:43;;;;;;;7.47;4.03;;;;;;;;;;5028043;28;20117;-70
2023/02/07 07:46:09;;;;;;;9.27;3.47;;;;;;;;;;5027146;28;20087;-71
2023/02/07 07:48:34;;;;;;;10.80;4.13;;;;;;;;;;5016832;28;20065;-70
2023/02/07 07:51:00;;;;;;;18.52;3.97;;;;;;;;;;5023675;28;20037;-71
2023/02/07 07:53:25;;;;;;;15.27;5.07;;;;;;;;;;5028799;28;20061;-71
2023/02/07 07:55:53;;;;;;;14.05;4.30;;;;;;;;;;5026013;28;20469;-70
2023/02/07 07:58:19;;;;;;;5.07;3.33;;;;;;;;;;5024563;28;20061;-71
2023/02/07 08:00:46;;;;;;;19.15;5.32;;;;;;;;;;5015991;28;20026;-71
2023/02/07 08:03:12;;;;;;;12.73;4.20;;;;;;;;;;5022274;28;20038;-71
2023/02/07 08:05:38;;;;;;;22.50;5.15;;;;;;;;;;5012540;28;20042;-71
2023/02/07 08:08:03;;;;;;;9.52;4.80;;;;;;;;;;5008870;28;20351;-71
2023/02/07 08:10:29;;;;;;;12.13;4.55;;;;;;;;;;5017495;28;20478;-71
2023/02/07 08:12:54;;;;;;;10.07;4.55;;;;;;;;;;5018302;28;20488;-71
2023/02/07 08:15:19;;;;;;;17.63;5.22;;;;;;;;;;5017815;28;20034;-71
2023/02/07 08:17:45;;;;;;;17.30;4.40;;;;;;;;;;5020809;28;20469;-72
2023/02/07 08:20:11;;;;;;;21.63;5.45;;;;;;;;;;5017040;28;20040;-71
2023/02/07 08:22:37;;;;;;;9.70;4.72;;;;;;;;;;5019012;28;20018;-71
2023/02/07 08:25:03;;;;;;;10.30;4.47;;;;;;;;;;5031642;28;20037;-72
2023/02/07 08:27:29;;;;;;;11.57;5.30;;;;;;;;;;5014488;28;20041;-73
2023/02/07 08:29:54;;;;;;;21.67;4.95;;;;;;;;;;5027746;28;20037;-71
2023/02/07 08:32:19;;;;;;;23.92;5.47;;;;;;;;;;5024064;28;20116;-71
2023/02/07 08:34:45;;;;;;;14.38;4.38;;;;;;;;;;5023173;28;20041;-73
2023/02/07 08:37:10;;;;;;;19.00;5.32;;;;;;;;;;5025583;28;20575;-72
2023/02/07 08:39:36;;;;;;;10.10;4.18;;;;;;;;;;5017910;28;20040;-71
2023/02/07 08:42:04;;;;;;;12.05;4.22;;;;;;;;;;5022953;28;20045;-71
2023/02/07 08:44:29;;;;;;;11.63;3.75;;;;;;;;;;5016438;28;20209;-72
2023/02/07 08:46:55;;;;;;;16.75;4.30;;;;;;;;;;5016291;28;20048;-72
2023/02/07 08:49:20;;;;;;;20.02;5.18;;;;;;;;;;5021787;28;20046;-73
2023/02/07 08:51:45;;;;;;;38.70;5.43;;;;;;;;;;5017696;28;20039;-74
2023/02/07 08:54:11;;;;;;;58.05;5.93;;;;;;;;;;5019485;28;20045;-73
2023/02/07 08:56:36;;;;;;;18.02;4.05;;;;;;;;;;4946146;28;20494;-72
2023/02/07 08:59:02;;;;;;;14.32;4.97;;;;;;;;;;5018490;28;20496;-72
2023/02/07 09:01:27;;;;;;;13.60;4.78;;;;;;;;;;5024453;28;20067;-71
2023/02/07 09:03:56;;;;;;;48.63;5.32;;;;;;;;;;5020163;28;20034;-73
2023/02/07 09:06:22;;;;;;;344.48;19.00;;;;;;;;;;5027595;28;20043;-72
2023/02/07 09:08:48;;;;;;;74.78;7.15;;;;;;;;;;5008662;28;20413;-73
2023/02/07 09:11:14;;;;;;;17.85;4.85;;;;;;;;;;5038550;28;20057;-73
2023/02/07 09:13:40;;;;;;;91.75;8.48;;;;;;;;;;5017214;28;20029;-73
2023/02/07 09:16:05;;;;;;;30.35;5.20;;;;;;;;;;5023029;28;20456;-73
2023/02/07 09:18:31;;;;;;;14.40;5.13;;;;;;;;;;5027980;28;20045;-73
2023/02/07 09:20:56;;;;;;;44.67;6.25;;;;;;;;;;5030320;28;20056;-73
2023/02/07 09:23:22;;;;;;;19.67;5.00;;;;;;;;;;5023849;28;20451;-73
2023/02/07 09:25:51;;;;;;;22.40;5.15;;;;;;;;;;5030186;28;20159;-73
2023/02/07 09:28:17;;;;;;;25.80;5.53;;;;;;;;;;5019142;28;20030;-72
2023/02/07 09:30:44;;;;;;;21.73;5.72;;;;;;;;;;5031333;28;20037;-74
2023/02/07 09:33:10;;;;;;;14.10;4.97;;;;;;;;;;5021145;28;20128;-72
2023/02/07 09:35:38;;;;;;;15.32;5.00;;;;;;;;;;5016341;28;20482;-73
2023/02/07 09:38:03;;;;;;;13.52;5.20;;;;;;;;;;5024856;28;20057;-72
2023/02/07 09:40:31;;;;;;;11.20;4.65;;;;;;;;;;5023909;28;20131;-72
2023/02/07 09:43:07;;;;;;;16.05;5.10;;;;;;;;;;5024461;28;20053;-72
2023/02/07 09:45:36;;;;;;;12.52;4.97;;;;;;;;;;5031581;28;20049;-72
2023/02/07 09:48:18;;;;;;;16.10;5.28;;;;;;;;;;5014985;28;20065;-76
2023/02/07 09:50:49;;;;;;;21.65;4.97;;;;;;;;;;5027613;28;20496;-73
2023/02/07 09:53:24;;;;;;;15.75;4.65;;;;;;;;;;5035450;28;20409;-73
2023/02/07 09:55:54;;;;;;;15.40;4.85;;;;;;;;;;5016769;28;20473;-73
2023/02/07 09:58:32;;;;;;;15.50;5.30;;;;;;;;;;5014829;28;20143;-73
2023/02/07 10:01:08;;;;;;;16.85;5.22;;;;;;;;;;5016001;28;20041;-72
2023/02/07 10:03:37;;;;;;;18.73;5.15;;;;;;;;;;5011618;28;20038;-73
2023/02/07 10:06:05;;;;;;;15.77;5.00;;;;;;;;;;5020434;28;20033;-72
2023/02/07 10:08:32;;;;;;;10.30;3.85;;;;;;;;;;5021169;28;20465;-73
2023/02/07 10:11:27;;;;;;;10.23;4.65;;;;;;;;;;5014852;28;20030;-73
2023/02/07 10:14:16;;;;;;;16.45;5.53;;;;;;;;;;5013784;28;20089;-76
2023/02/07 10:17:06;;;;;;;16.73;5.97;;;;;;;;;;5021111;28;20038;-72
2023/02/07 10:19:41;;;;;;;12.07;4.88;;;;;;;;;;5008666;28;20046;-73
2023/02/07 10:22:34;;;;;;;15.77;4.75;;;;;;;;;;5009363;28;20482;-74
2023/02/07 10:25:34;;;;;;;12.60;4.88;;;;;;;;;;5012423;28;20034;-75
2023/02/07 10:28:05;;;;;;;11.07;3.78;;;;;;;;;;5008450;28;20176;-76
2023/02/07 10:30:34;;;;;;;11.82;4.70;;;;;;;;;;5012480;28;20049;-72
2023/02/07 10:33:24;;;;;;;15.48;4.22;;;;;;;;;;5029816;28;20073;-73
2023/02/07 10:35:51;;;;;;;13.43;4.00;;;;;;;;;;5008164;28;20040;-73
2023/02/07 10:38:34;;;;;;;13.95;4.53;;;;;;;;;;5016372;28;20034;-72
2023/02/07 10:41:05;;;;;;;11.57;4.33;;;;;;;;;;5013989;28;20110;-72
2023/02/07 10:43:32;;;;;;;8.95;4.43;;;;;;;;;;5019037;28;20338;-74
2023/02/07 10:46:00;;;;;;;20.70;5.18;;;;;;;;;;5005132;28;20120;-72
2023/02/07 10:48:26;;;;;;;11.40;4.10;;;;;;;;;;5019821;28;20047;-72
2023/02/07 10:50:52;;;;;;;28.33;6.88;;;;;;;;;;5022858;28;20037;-72
2023/02/07 10:53:44;;;;;;;17.52;5.85;;;;;;;;;;5018509;28;20053;-72
2023/02/07 10:56:29;;;;;;;16.70;5.82;;;;;;;;;;5009853;28;20038;-72
2023/02/07 10:58:56;;;;;;;15.65;6.00;;;;;;;;;;5038116;28;20481;-72
2023/02/07 11:01:24;;;;;;;16.45;5.45;;;;;;;;;;4996223;28;20042;-72
2023/02/07 11:03:50;;;;;;;16.25;6.65;;;;;;;;;;5015119;28;20030;-72
2023/02/07 11:06:28;;;;;;;19.88;7.55;;;;;;;;;;5023481;28;20041;-72
2023/02/07 11:09:19;;;;;;;18.77;7.32;;;;;;;;;;5022870;28;20034;-75
2023/02/07 11:11:50;;;;;;;13.60;7.15;;;;;;;;;;5016776;28;20033;-75
2023/02/07 11:14:19;;;;;;;20.83;8.20;;;;;;;;;;5022293;28;20033;-72
2023/02/07 11:16:46;;;;;;;12.65;8.18;;;;;;;;;;5020480;28;20030;-73
2023/02/07 11:19:20;;;;;;;23.65;8.48;;;;;;;;;;5025226;28;20120;-72
2023/02/07 11:21:48;;;;;;;23.75;7.88;;;;;;;;;;5037496;28;20042;-72
2023/02/07 11:24:30;;;;;;;22.75;8.48;;;;;;;;;;5026312;28;20128;-73
2023/02/07 11:27:01;;;;;;;15.40;7.45;;;;;;;;;;5023238;28;20069;-72
2023/02/07 11:29:28;;;;;;;16.90;7.95;;;;;;;;;;5012991;28;20041;-72
2023/02/07 11:31:55;;;;;;;15.15;7.22;;;;;;;;;;5008511;28;20080;-72
2023/02/07 11:34:50;;;;;;;19.30;8.25;;;;;;;;;;5021930;28;20047;-72
2023/02/07 11:37:15;;;;;;;18.23;7.93;;;;;;;;;;5003673;28;20417;-73
2023/02/07 11:39:42;;;;;;;22.65;8.88;;;;;;;;;;5013744;28;20041;-76
2023/02/07 11:42:11;;;;;;;19.15;9.77;;;;;;;;;;5002786;28;20034;-72
2023/02/07 11:44:41;;;;;;;15.32;7.70;;;;;;;;;;5016020;28;20159;-72
2023/02/07 11:47:08;;;;;;;18.33;7.88;;;;;;;;;;5013492;28;20488;-71
2023/02/07 11:49:37;;;;;;;15.35;6.75;;;;;;;;;;5020258;28;20045;-72
2023/02/07 11:52:03;;;;;;;23.20;7.28;;;;;;;;;;5016092;28;20457;-72
2023/02/07 11:54:29;;;;;;;21.33;7.15;;;;;;;;;;5021803;28;20079;-72
2023/02/07 11:57:14;;;;;;;18.80;6.97;;;;;;;;;;5032782;28;20141;-72
2023/02/07 12:00:06;;;;;;;15.38;5.90;;;;;;;;;;5021617;28;20038;-72
2023/02/07 12:02:33;;;;;;;17.38;5.80;;;;;;;;;;5014881;28;20401;-72
2023/02/07 12:05:18;;;;;;;17.23;5.70;;;;;;;;;;5026673;28;20121;-72
2023/02/07 12:07:47;;;;;;;18.25;6.05;;;;;;;;;;5017094;28;20045;-72
2023/02/07 12:10:34;;;;;;;19.77;6.38;;;;;;;;;;5016759;28;20030;-72
2023/02/07 12:13:11;;;;;;;16.27;6.30;;;;;;;;;;5013183;28;20093;-72
2023/02/07 12:15:39;;;;;;;14.05;6.57;;;;;;;;;;4989537;28;20089;-73
2023/02/07 12:18:27;;;;;;;18.33;6.47;;;;;;;;;;5021426;28;20401;-76
2023/02/07 12:21:29;;;;;;;18.73;6.60;;;;;;;;;;5023954;28;20128;-72
2023/02/07 12:24:05;;;;;;;16.17;6.00;;;;;;;;;;5019711;28;20088;-72
2023/02/07 12:26:35;;;;;;;14.60;6.28;;;;;;;;;;5012243;28;20500;-72
2023/02/07 12:29:35;;;;;;;27.60;8.25;;;;;;;;;;5014014;28;20552;-72
2023/02/07 12:32:25;;;;;;;16.10;6.40;;;;;;;;;;5013819;28;20056;-72
2023/02/07 12:35:09;;;;;;;19.63;5.65;;;;;;;;;;5013359;28;20041;-72
2023/02/07 12:38:12;;;;;;;14.80;5.77;;;;;;;;;;5013271;28;20048;-72
2023/02/07 12:40:40;;;;;;;15.10;5.35;;;;;;;;;;5020022;28;20274;-73
2023/02/07 12:43:21;;;;;;;18.40;5.85;;;;;;;;;;5019055;28;20504;-72
2023/02/07 12:45:58;;;;;;;23.70;6.53;;;;;;;;;;5025313;28;20474;-72
2023/02/07 12:48:43;;;;;;;15.90;5.63;;;;;;;;;;5029136;28;20045;-72
2023/02/07 12:51:40;;;;;;;14.73;5.55;;;;;;;;;;5012237;28;20506;-73
2023/02/07 12:54:27;;;;;;;21.60;5.78;;;;;;;;;;5002337;28;20050;-72
2023/02/07 12:57:01;;;;;;;13.98;5.20;;;;;;;;;;5021821;28;20042;-72
2023/02/07 12:59:40;;;;;;;16.42;6.90;;;;;;;;;;5018068;28;20037;-72
2023/02/07 13:02:14;;;;;;;15.73;5.65;;;;;;;;;;5018685;28;20037;-73
2023/02/07 13:05:02;;;;;;;14.93;5.70;;;;;;;;;;5022115;28;20124;-72
2023/02/07 13:07:34;;;;;;;22.75;7.47;;;;;;;;;;5004444;28;20048;-72
2023/02/07 13:10:30;;;;;;;23.50;8.60;;;;;;;;;;5020038;28;20037;-73
2023/02/07 13:13:05;;;;;;;19.60;8.75;;;;;;;;;;5019153;28;20060;-72
2023/02/07 13:15:43;;;;;;;21.90;8.57;;;;;;;;;;5019386;28;20132;-73
2023/02/07 13:18:22;;;;;;;28.70;7.35;;;;;;;;;;5022775;28;20142;-74
2023/02/07 13:21:02;;;;;;;14.40;8.57;;;;;;;;;;5008927;28;20452;-73
2023/02/07 13:23:31;;;;;;;26.85;8.50;;;;;;;;;;5010647;28;20492;-72
2023/02/07 13:26:02;;;;;;;19.02;9.45;;;;;;;;;;5023789;28;20034;-72
2023/02/07 13:28:58;;;;;;;19.17;9.30;;;;;;;;;;5004025;28;20033;-72
2023/02/07 13:31:35;;;;;;;25.27;9.88;;;;;;;;;;5023752;28;20623;-72
2023/02/07 13:34:01;;;;;;;21.15;8.93;;;;;;;;;;4982679;28;20069;-73
2023/02/07 13:36:42;;;;;;;23.10;9.38;;;;;;;;;;5014908;28;20073;-73
2023/02/07 13:39:23;;;;;;;21.50;9.57;;;;;;;;;;4996675;28;20117;-72
2023/02/07 13:42:30;;;;;;;19.42;9.63;;;;;;;;;;5011511;28;20052;-71
2023/02/07 13:45:06;;;;;;;22.10;7.55;;;;;;;;;;5021149;28;20045;-72
2023/02/07 13:47:52;;;;;;;27.05;10.82;;;;;;;;;;5007588;28;20053;-72
2023/02/07 13:50:29;;;;;;;16.20;8.38;;;;;;;;;;5011030;28;20113;-72
2023/02/07 13:53:13;;;;;;;18.98;8.07;;;;;;;;;;5015225;28;21311;-73
2023/02/07 13:55:40;;;;;;;22.60;9.98;;;;;;;;;;5021909;28;20145;-72
2023/02/07 14:01:25;;;;;;;20.25;10.60;;;;;;;;;;5007938;28;20413;-73
2023/02/07 14:04:06;;;;;;;23.05;9.82;;;;;;;;;;5015387;28;20033;-74
2023/02/07 14:06:34;;;;;;;25.45;9.32;;;;;;;;;;5028378;28;20048;-73
2023/02/07 14:09:16;;;;;;;23.48;9.65;;;;;;;;;;5027022;28;20409;-73
2023/02/07 14:11:49;;;;;;;21.58;8.43;;;;;;;;;;5013680;28;20486;-72
2023/02/07 14:14:44;;;;;;;23.92;10.13;;;;;;;;;;5011627;28;20041;-72
2023/02/07 14:17:13;;;;;;;22.70;9.30;;;;;;;;;;5004588;28;20033;-72
2023/02/07 14:19:38;;;;;;;27.13;9.25;;;;;;;;;;5031637;28;20057;-72
2023/02/07 14:22:25;;;;;;;22.15;9.45;;;;;;;;;;5018803;28;20138;-73
2023/02/07 14:24:57;;;;;;;17.35;8.93;;;;;;;;;;5014448;28;20141;-73
2023/02/07 14:27:28;;;;;;;22.65;9.30;;;;;;;;;;5011453;28;20037;-74
2023/02/07 14:29:58;;;;;;;19.48;8.93;;;;;;;;;;5013396;28;20470;-73
2023/02/07 14:32:26;;;;;;;21.58;10.20;;;;;;;;;;5022673;28;20052;-73
2023/02/07 14:35:15;;;;;;;21.90;10.40;;;;;;;;;;5026258;28;20033;-73
2023/02/07 14:37:55;;;;;;;23.25;8.43;;;;;;;;;;5027153;28;20045;-73
2023/02/07 14:40:34;;;;;;;18.60;8.70;;;;;;;;;;5020224;28;20045;-74
2023/02/07 14:43:03;;;;;;;18.73;8.43;;;;;;;;;;5020145;28;20038;-73
2023/02/07 14:45:30;;;;;;;24.48;8.88;;;;;;;;;;5020408;28;20374;-73
2023/02/07 14:47:56;;;;;;;27.60;8.77;;;;;;;;;;5031774;28;20095;-72
2023/02/07 14:50:29;;;;;;;22.05;9.10;;;;;;;;;;5020324;28;20038;-72
2023/02/07 14:52:57;;;;;;;19.35;8.40;;;;;;;;;;5015927;28;20045;-73
2023/02/07 14:55:47;;;;;;;25.05;10.05;;;;;;;;;;5017099;28;20041;-73
2023/02/07 14:58:31;;;;;;;18.25;8.90;;;;;;;;;;5017986;28;20035;-73